sensor_id;sensor_type;location;lat;lon;timestamp;P1;durP1;ratioP1;P2;durP2;ratioP2
8281;SDS011;25606;42.686;23.136;2023-06-05T00:00:41;30.93;;;19.17;;
8281;SDS011;25606;42.686;23.136;2023-06-05T00:03:08;30.60;;;19.87;;
8281;SDS011;25606;42.686;23.136;2023-06-05T00:05:37;35.90;;;20.43;;
8281;SDS011;25606;42.686;23.136;2023-06-05T00:08:04;37.63;;;21.20;;
8281;SDS011;25606;42.686;23.136;2023-06-05T00:10:32;45.20;;;21.70;;
8281;SDS011;25606;42.686;23.136;2023-06-05T00:13:00;37.30;;;20.93;;
8281;SDS011;25606;42.686;23.136;2023-06-05T00:15:27;43.63;;;21.57;;
8281;SDS011;25606;42.686;23.136;2023-06-05T00:17:56;35.53;;;19.93;;
8281;SDS011;25606;42.686;23.136;2023-06-05T00:20:23;34.13;;;20.87;;
8281;SDS011;25606;42.686;23.136;2023-06-05T00:22:52;34.73;;;20.07;;
8281;SDS011;25606;42.686;23.136;2023-06-05T00:25:20;33.83;;;19.83;;
8281;SDS011;25606;42.686;23.136;2023-06-05T00:27:47;33.27;;;18.53;;
8281;SDS011;25606;42.686;23.136;2023-06-05T00:30:14;24.20;;;15.20;;
8281;SDS011;25606;42.686;23.136;2023-06-05T00:32:42;32.10;;;17.10;;
8281;SDS011;25606;42.686;23.136;2023-06-05T00:35:09;26.67;;;16.40;;
8281;SDS011;25606;42.686;23.136;2023-06-05T00:37:36;29.57;;;17.70;;
8281;SDS011;25606;42.686;23.136;2023-06-05T00:40:06;22.73;;;18.00;;
8281;SDS011;25606;42.686;23.136;2023-06-05T00:42:34;29.90;;;18.00;;
8281;SDS011;25606;42.686;23.136;2023-06-05T00:45:01;30.23;;;19.00;;
8281;SDS011;25606;42.686;23.136;2023-06-05T00:47:28;38.53;;;19.30;;
8281;SDS011;25606;42.686;23.136;2023-06-05T00:49:56;32.20;;;20.10;;
8281;SDS011;25606;42.686;23.136;2023-06-05T00:52:23;34.97;;;19.50;;
8281;SDS011;25606;42.686;23.136;2023-06-05T00:54:51;30.43;;;17.90;;
8281;SDS011;25606;42.686;23.136;2023-06-05T00:57:20;35.80;;;17.60;;
8281;SDS011;25606;42.686;23.136;2023-06-05T00:59:49;32.47;;;17.53;;
8281;SDS011;25606;42.686;23.136;2023-06-05T01:02:18;31.03;;;18.03;;
8281;SDS011;25606;42.686;23.136;2023-06-05T01:04:46;24.37;;;17.13;;
8281;SDS011;25606;42.686;23.136;2023-06-05T01:07:14;32.73;;;18.33;;
8281;SDS011;25606;42.686;23.136;2023-06-05T01:09:41;31.07;;;17.97;;
8281;SDS011;25606;42.686;23.136;2023-06-05T01:12:11;25.87;;;17.40;;
8281;SDS011;25606;42.686;23.136;2023-06-05T01:14:43;24.93;;;17.47;;
8281;SDS011;25606;42.686;23.136;2023-06-05T01:17:13;30.33;;;17.93;;
8281;SDS011;25606;42.686;23.136;2023-06-05T01:19:42;30.60;;;17.77;;
8281;SDS011;25606;42.686;23.136;2023-06-05T01:22:10;25.47;;;17.63;;
8281;SDS011;25606;42.686;23.136;2023-06-05T01:24:39;27.33;;;17.47;;
8281;SDS011;25606;42.686;23.136;2023-06-05T01:27:08;30.00;;;18.17;;
8281;SDS011;25606;42.686;23.136;2023-06-05T01:29:38;32.87;;;18.30;;
8281;SDS011;25606;42.686;23.136;2023-06-05T01:32:09;28.27;;;18.47;;
8281;SDS011;25606;42.686;23.136;2023-06-05T01:34:41;35.80;;;20.20;;
8281;SDS011;25606;42.686;23.136;2023-06-05T01:37:09;28.00;;;18.80;;
8281;SDS011;25606;42.686;23.136;2023-06-05T01:39:37;35.63;;;20.87;;
8281;SDS011;25606;42.686;23.136;2023-06-05T01:42:07;29.83;;;19.37;;
8281;SDS011;25606;42.686;23.136;2023-06-05T01:44:35;27.90;;;18.93;;
8281;SDS011;25606;42.686;23.136;2023-06-05T01:47:03;32.50;;;19.27;;
8281;SDS011;25606;42.686;23.136;2023-06-05T01:49:30;38.47;;;20.83;;
8281;SDS011;25606;42.686;23.136;2023-06-05T01:51:58;34.57;;;21.20;;
8281;SDS011;25606;42.686;23.136;2023-06-05T01:54:25;40.57;;;22.07;;
8281;SDS011;25606;42.686;23.136;2023-06-05T01:56:53;38.13;;;20.30;;
8281;SDS011;25606;42.686;23.136;2023-06-05T01:59:22;38.30;;;21.40;;
8281;SDS011;25606;42.686;23.136;2023-06-05T02:01:49;34.10;;;20.43;;
8281;SDS011;25606;42.686;23.136;2023-06-05T02:04:17;31.27;;;19.10;;
8281;SDS011;25606;42.686;23.136;2023-06-05T02:06:45;28.73;;;20.57;;
8281;SDS011;25606;42.686;23.136;2023-06-05T02:09:14;28.80;;;18.90;;
8281;SDS011;25606;42.686;23.136;2023-06-05T02:11:42;32.20;;;19.20;;
8281;SDS011;25606;42.686;23.136;2023-06-05T02:14:10;31.77;;;20.07;;
8281;SDS011;25606;42.686;23.136;2023-06-05T02:16:40;33.80;;;19.73;;
8281;SDS011;25606;42.686;23.136;2023-06-05T02:19:08;32.27;;;19.70;;
8281;SDS011;25606;42.686;23.136;2023-06-05T02:21:36;37.67;;;21.73;;
8281;SDS011;25606;42.686;23.136;2023-06-05T02:24:03;42.57;;;21.50;;
8281;SDS011;25606;42.686;23.136;2023-06-05T02:26:32;42.40;;;22.20;;
8281;SDS011;25606;42.686;23.136;2023-06-05T02:28:59;45.90;;;23.37;;
8281;SDS011;25606;42.686;23.136;2023-06-05T02:31:26;48.27;;;23.47;;
8281;SDS011;25606;42.686;23.136;2023-06-05T02:33:56;35.13;;;22.43;;
8281;SDS011;25606;42.686;23.136;2023-06-05T02:36:24;37.03;;;21.97;;
8281;SDS011;25606;42.686;23.136;2023-06-05T02:38:51;41.17;;;21.67;;
8281;SDS011;25606;42.686;23.136;2023-06-05T02:41:19;33.60;;;21.53;;
8281;SDS011;25606;42.686;23.136;2023-06-05T02:43:47;36.00;;;21.80;;
8281;SDS011;25606;42.686;23.136;2023-06-05T02:46:14;35.67;;;21.77;;
8281;SDS011;25606;42.686;23.136;2023-06-05T02:48:42;35.83;;;22.10;;
8281;SDS011;25606;42.686;23.136;2023-06-05T02:51:10;42.57;;;22.43;;
8281;SDS011;25606;42.686;23.136;2023-06-05T02:53:38;38.00;;;22.07;;
8281;SDS011;25606;42.686;23.136;2023-06-05T02:56:05;35.17;;;21.07;;
8281;SDS011;25606;42.686;23.136;2023-06-05T02:58:33;40.50;;;20.57;;
8281;SDS011;25606;42.686;23.136;2023-06-05T03:01:00;41.40;;;22.70;;
8281;SDS011;25606;42.686;23.136;2023-06-05T03:03:28;41.07;;;22.43;;
8281;SDS011;25606;42.686;23.136;2023-06-05T03:05:56;48.07;;;22.90;;
8281;SDS011;25606;42.686;23.136;2023-06-05T03:08:30;35.97;;;21.37;;
8281;SDS011;25606;42.686;23.136;2023-06-05T03:10:58;38.40;;;21.70;;
8281;SDS011;25606;42.686;23.136;2023-06-05T03:13:26;104.47;;;25.10;;
8281;SDS011;25606;42.686;23.136;2023-06-05T03:15:53;44.23;;;21.73;;
8281;SDS011;25606;42.686;23.136;2023-06-05T03:18:22;40.83;;;23.13;;
8281;SDS011;25606;42.686;23.136;2023-06-05T03:20:50;51.60;;;23.33;;
8281;SDS011;25606;42.686;23.136;2023-06-05T03:23:20;49.47;;;23.40;;
8281;SDS011;25606;42.686;23.136;2023-06-05T03:25:48;45.37;;;21.33;;
8281;SDS011;25606;42.686;23.136;2023-06-05T03:28:16;45.10;;;23.50;;
8281;SDS011;25606;42.686;23.136;2023-06-05T03:30:43;49.57;;;23.70;;
8281;SDS011;25606;42.686;23.136;2023-06-05T03:33:11;44.13;;;21.43;;
8281;SDS011;25606;42.686;23.136;2023-06-05T03:35:39;27.47;;;16.83;;
8281;SDS011;25606;42.686;23.136;2023-06-05T03:38:06;28.67;;;18.53;;
8281;SDS011;25606;42.686;23.136;2023-06-05T03:40:33;32.93;;;20.47;;
8281;SDS011;25606;42.686;23.136;2023-06-05T03:43:05;29.13;;;19.73;;
8281;SDS011;25606;42.686;23.136;2023-06-05T03:45:33;37.43;;;18.40;;
8281;SDS011;25606;42.686;23.136;2023-06-05T03:48:00;33.80;;;21.37;;
8281;SDS011;25606;42.686;23.136;2023-06-05T03:50:27;36.30;;;21.37;;
8281;SDS011;25606;42.686;23.136;2023-06-05T03:52:55;38.13;;;20.40;;
8281;SDS011;25606;42.686;23.136;2023-06-05T03:55:27;29.83;;;19.80;;
8281;SDS011;25606;42.686;23.136;2023-06-05T03:58:10;28.73;;;20.00;;
8281;SDS011;25606;42.686;23.136;2023-06-05T04:00:39;26.83;;;19.27;;
8281;SDS011;25606;42.686;23.136;2023-06-05T04:03:07;29.30;;;19.57;;
8281;SDS011;25606;42.686;23.136;2023-06-05T04:05:36;28.83;;;19.53;;
8281;SDS011;25606;42.686;23.136;2023-06-05T04:08:04;34.50;;;19.67;;
8281;SDS011;25606;42.686;23.136;2023-06-05T04:10:31;31.27;;;19.87;;
8281;SDS011;25606;42.686;23.136;2023-06-05T04:12:59;31.37;;;19.63;;
8281;SDS011;25606;42.686;23.136;2023-06-05T04:15:27;30.33;;;18.90;;
8281;SDS011;25606;42.686;23.136;2023-06-05T04:17:55;31.23;;;20.00;;
8281;SDS011;25606;42.686;23.136;2023-06-05T04:20:22;27.90;;;18.03;;
8281;SDS011;25606;42.686;23.136;2023-06-05T04:22:50;33.23;;;20.47;;
8281;SDS011;25606;42.686;23.136;2023-06-05T04:25:17;31.23;;;19.20;;
8281;SDS011;25606;42.686;23.136;2023-06-05T04:27:45;30.87;;;19.23;;
8281;SDS011;25606;42.686;23.136;2023-06-05T04:30:13;35.43;;;19.17;;
8281;SDS011;25606;42.686;23.136;2023-06-05T04:32:42;27.50;;;18.03;;
8281;SDS011;25606;42.686;23.136;2023-06-05T04:35:18;29.93;;;17.73;;
8281;SDS011;25606;42.686;23.136;2023-06-05T04:37:45;32.53;;;16.30;;
8281;SDS011;25606;42.686;23.136;2023-06-05T04:40:13;30.57;;;18.53;;
8281;SDS011;25606;42.686;23.136;2023-06-05T04:42:41;33.03;;;18.50;;
8281;SDS011;25606;42.686;23.136;2023-06-05T04:45:08;27.10;;;16.97;;
8281;SDS011;25606;42.686;23.136;2023-06-05T04:47:36;31.27;;;18.57;;
8281;SDS011;25606;42.686;23.136;2023-06-05T04:50:05;31.57;;;18.10;;
8281;SDS011;25606;42.686;23.136;2023-06-05T04:52:34;29.13;;;18.33;;
8281;SDS011;25606;42.686;23.136;2023-06-05T04:55:05;30.53;;;19.07;;
8281;SDS011;25606;42.686;23.136;2023-06-05T04:57:32;27.90;;;18.50;;
8281;SDS011;25606;42.686;23.136;2023-06-05T05:00:00;28.37;;;17.50;;
8281;SDS011;25606;42.686;23.136;2023-06-05T05:02:29;25.20;;;17.40;;
8281;SDS011;25606;42.686;23.136;2023-06-05T05:04:56;23.40;;;15.97;;
8281;SDS011;25606;42.686;23.136;2023-06-05T05:07:25;25.63;;;17.03;;
8281;SDS011;25606;42.686;23.136;2023-06-05T05:09:53;21.20;;;15.50;;
8281;SDS011;25606;42.686;23.136;2023-06-05T05:12:21;22.77;;;16.17;;
8281;SDS011;25606;42.686;23.136;2023-06-05T05:14:48;19.20;;;15.20;;
8281;SDS011;25606;42.686;23.136;2023-06-05T05:17:15;18.83;;;14.70;;
8281;SDS011;25606;42.686;23.136;2023-06-05T05:19:44;17.40;;;13.97;;
8281;SDS011;25606;42.686;23.136;2023-06-05T05:22:12;20.60;;;15.13;;
8281;SDS011;25606;42.686;23.136;2023-06-05T05:24:41;20.63;;;14.87;;
8281;SDS011;25606;42.686;23.136;2023-06-05T05:27:08;18.20;;;14.43;;
8281;SDS011;25606;42.686;23.136;2023-06-05T05:29:35;19.67;;;14.00;;
8281;SDS011;25606;42.686;23.136;2023-06-05T05:32:03;17.00;;;14.00;;
8281;SDS011;25606;42.686;23.136;2023-06-05T05:34:30;16.70;;;14.63;;
8281;SDS011;25606;42.686;23.136;2023-06-05T05:36:58;18.40;;;14.77;;
8281;SDS011;25606;42.686;23.136;2023-06-05T05:39:26;17.30;;;14.17;;
8281;SDS011;25606;42.686;23.136;2023-06-05T05:41:55;17.33;;;14.03;;
8281;SDS011;25606;42.686;23.136;2023-06-05T05:44:23;17.93;;;14.97;;
8281;SDS011;25606;42.686;23.136;2023-06-05T05:46:51;22.40;;;15.03;;
8281;SDS011;25606;42.686;23.136;2023-06-05T05:49:18;21.30;;;14.40;;
8281;SDS011;25606;42.686;23.136;2023-06-05T05:51:45;19.93;;;16.13;;
8281;SDS011;25606;42.686;23.136;2023-06-05T05:54:12;17.20;;;14.77;;
8281;SDS011;25606;42.686;23.136;2023-06-05T05:56:40;18.10;;;14.70;;
8281;SDS011;25606;42.686;23.136;2023-06-05T05:59:08;17.73;;;15.67;;
8281;SDS011;25606;42.686;23.136;2023-06-05T06:01:36;18.77;;;15.87;;
8281;SDS011;25606;42.686;23.136;2023-06-05T06:04:03;22.60;;;15.20;;
8281;SDS011;25606;42.686;23.136;2023-06-05T06:06:30;19.40;;;16.73;;
8281;SDS011;25606;42.686;23.136;2023-06-05T06:08:58;18.27;;;14.17;;
8281;SDS011;25606;42.686;23.136;2023-06-05T06:11:26;16.03;;;14.37;;
8281;SDS011;25606;42.686;23.136;2023-06-05T06:13:54;19.17;;;13.70;;
8281;SDS011;25606;42.686;23.136;2023-06-05T06:16:22;15.30;;;13.17;;
8281;SDS011;25606;42.686;23.136;2023-06-05T06:18:50;16.73;;;13.10;;
8281;SDS011;25606;42.686;23.136;2023-06-05T06:21:18;15.03;;;13.23;;
8281;SDS011;25606;42.686;23.136;2023-06-05T06:23:45;15.37;;;13.30;;
8281;SDS011;25606;42.686;23.136;2023-06-05T06:26:12;16.10;;;14.10;;
8281;SDS011;25606;42.686;23.136;2023-06-05T06:28:40;16.27;;;13.80;;
8281;SDS011;25606;42.686;23.136;2023-06-05T06:31:07;15.80;;;13.60;;
8281;SDS011;25606;42.686;23.136;2023-06-05T06:33:36;17.57;;;15.07;;
8281;SDS011;25606;42.686;23.136;2023-06-05T06:36:04;18.50;;;16.47;;
8281;SDS011;25606;42.686;23.136;2023-06-05T06:38:31;17.47;;;15.57;;
8281;SDS011;25606;42.686;23.136;2023-06-05T06:40:58;17.73;;;15.93;;
8281;SDS011;25606;42.686;23.136;2023-06-05T06:43:26;19.50;;;17.07;;
8281;SDS011;25606;42.686;23.136;2023-06-05T06:45:53;20.80;;;16.93;;
8281;SDS011;25606;42.686;23.136;2023-06-05T06:48:20;19.50;;;16.93;;
8281;SDS011;25606;42.686;23.136;2023-06-05T06:50:49;22.03;;;16.10;;
8281;SDS011;25606;42.686;23.136;2023-06-05T06:53:17;19.90;;;15.73;;
8281;SDS011;25606;42.686;23.136;2023-06-05T06:55:44;22.00;;;16.07;;
8281;SDS011;25606;42.686;23.136;2023-06-05T06:58:12;17.30;;;14.77;;
8281;SDS011;25606;42.686;23.136;2023-06-05T07:00:39;19.33;;;15.00;;
8281;SDS011;25606;42.686;23.136;2023-06-05T07:03:07;17.23;;;15.03;;
8281;SDS011;25606;42.686;23.136;2023-06-05T07:05:35;17.67;;;15.27;;
8281;SDS011;25606;42.686;23.136;2023-06-05T07:08:04;15.33;;;13.80;;
8281;SDS011;25606;42.686;23.136;2023-06-05T07:10:31;15.60;;;13.80;;
8281;SDS011;25606;42.686;23.136;2023-06-05T07:12:59;18.37;;;13.23;;
8281;SDS011;25606;42.686;23.136;2023-06-05T07:15:26;14.87;;;13.37;;
8281;SDS011;25606;42.686;23.136;2023-06-05T07:17:54;16.50;;;13.57;;
8281;SDS011;25606;42.686;23.136;2023-06-05T07:20:21;16.93;;;13.57;;
8281;SDS011;25606;42.686;23.136;2023-06-05T07:22:48;16.03;;;13.37;;
8281;SDS011;25606;42.686;23.136;2023-06-05T07:25:17;15.23;;;13.30;;
8281;SDS011;25606;42.686;23.136;2023-06-05T07:27:46;16.83;;;13.30;;
8281;SDS011;25606;42.686;23.136;2023-06-05T07:30:13;17.10;;;12.37;;
8281;SDS011;25606;42.686;23.136;2023-06-05T07:32:41;15.07;;;12.23;;
8281;SDS011;25606;42.686;23.136;2023-06-05T07:35:10;17.33;;;13.27;;
8281;SDS011;25606;42.686;23.136;2023-06-05T07:37:39;15.40;;;12.90;;
8281;SDS011;25606;42.686;23.136;2023-06-05T07:40:07;16.30;;;12.43;;
8281;SDS011;25606;42.686;23.136;2023-06-05T07:42:36;17.70;;;13.03;;
8281;SDS011;25606;42.686;23.136;2023-06-05T07:45:04;15.40;;;12.53;;
8281;SDS011;25606;42.686;23.136;2023-06-05T07:47:31;15.70;;;13.27;;
8281;SDS011;25606;42.686;23.136;2023-06-05T07:49:59;18.73;;;13.73;;
8281;SDS011;25606;42.686;23.136;2023-06-05T07:52:28;18.07;;;13.30;;
8281;SDS011;25606;42.686;23.136;2023-06-05T07:54:57;17.03;;;12.97;;
8281;SDS011;25606;42.686;23.136;2023-06-05T07:57:24;25.60;;;17.03;;
8281;SDS011;25606;42.686;23.136;2023-06-05T07:59:53;19.47;;;13.43;;
8281;SDS011;25606;42.686;23.136;2023-06-05T08:02:21;21.43;;;14.43;;
8281;SDS011;25606;42.686;23.136;2023-06-05T08:04:49;17.07;;;13.60;;
8281;SDS011;25606;42.686;23.136;2023-06-05T08:07:16;17.30;;;12.83;;
8281;SDS011;25606;42.686;23.136;2023-06-05T08:09:44;18.30;;;12.87;;
8281;SDS011;25606;42.686;23.136;2023-06-05T08:12:11;28.13;;;18.40;;
8281;SDS011;25606;42.686;23.136;2023-06-05T08:14:38;17.87;;;12.87;;
8281;SDS011;25606;42.686;23.136;2023-06-05T08:17:07;18.60;;;12.87;;
8281;SDS011;25606;42.686;23.136;2023-06-05T08:19:34;18.83;;;13.17;;
8281;SDS011;25606;42.686;23.136;2023-06-05T08:22:02;23.70;;;13.07;;
8281;SDS011;25606;42.686;23.136;2023-06-05T08:24:29;19.63;;;14.10;;
8281;SDS011;25606;42.686;23.136;2023-06-05T08:26:57;20.80;;;13.30;;
8281;SDS011;25606;42.686;23.136;2023-06-05T08:29:26;19.77;;;12.57;;
8281;SDS011;25606;42.686;23.136;2023-06-05T08:31:54;17.73;;;13.10;;
8281;SDS011;25606;42.686;23.136;2023-06-05T08:34:22;17.63;;;12.77;;
8281;SDS011;25606;42.686;23.136;2023-06-05T08:36:51;18.47;;;12.87;;
8281;SDS011;25606;42.686;23.136;2023-06-05T08:39:18;19.33;;;13.97;;
8281;SDS011;25606;42.686;23.136;2023-06-05T08:41:45;19.90;;;13.63;;
8281;SDS011;25606;42.686;23.136;2023-06-05T08:44:16;21.50;;;14.27;;
8281;SDS011;25606;42.686;23.136;2023-06-05T08:46:43;21.00;;;13.50;;
8281;SDS011;25606;42.686;23.136;2023-06-05T08:49:10;17.17;;;12.43;;
8281;SDS011;25606;42.686;23.136;2023-06-05T08:51:40;18.33;;;12.70;;
8281;SDS011;25606;42.686;23.136;2023-06-05T08:54:09;19.87;;;13.37;;
8281;SDS011;25606;42.686;23.136;2023-06-05T08:56:39;23.70;;;13.87;;
8281;SDS011;25606;42.686;23.136;2023-06-05T08:59:06;20.30;;;13.47;;
8281;SDS011;25606;42.686;23.136;2023-06-05T09:01:34;18.57;;;13.53;;
8281;SDS011;25606;42.686;23.136;2023-06-05T09:04:02;18.63;;;13.33;;
8281;SDS011;25606;42.686;23.136;2023-06-05T09:06:29;19.00;;;12.97;;
8281;SDS011;25606;42.686;23.136;2023-06-05T09:09:00;21.08;;;14.00;;
8281;SDS011;25606;42.686;23.136;2023-06-05T09:11:28;20.20;;;13.40;;
8281;SDS011;25606;42.686;23.136;2023-06-05T09:13:56;18.13;;;13.77;;
8281;SDS011;25606;42.686;23.136;2023-06-05T09:16:31;22.17;;;14.13;;
8281;SDS011;25606;42.686;23.136;2023-06-05T09:18:59;23.57;;;13.23;;
8281;SDS011;25606;42.686;23.136;2023-06-05T09:21:27;22.63;;;14.47;;
8281;SDS011;25606;42.686;23.136;2023-06-05T09:24:13;20.63;;;13.63;;
8281;SDS011;25606;42.686;23.136;2023-06-05T09:26:47;21.13;;;13.40;;
8281;SDS011;25606;42.686;23.136;2023-06-05T09:29:19;25.15;;;19.70;;
8281;SDS011;25606;42.686;23.136;2023-06-05T09:31:47;42.47;;;32.53;;
8281;SDS011;25606;42.686;23.136;2023-06-05T09:34:21;47.22;;;38.58;;
8281;SDS011;25606;42.686;23.136;2023-06-05T09:36:49;53.58;;;42.97;;
8281;SDS011;25606;42.686;23.136;2023-06-05T09:39:18;49.13;;;39.33;;
8281;SDS011;25606;42.686;23.136;2023-06-05T09:41:46;57.03;;;44.75;;
8281;SDS011;25606;42.686;23.136;2023-06-05T09:44:16;63.03;;;48.33;;
8281;SDS011;25606;42.686;23.136;2023-06-05T09:46:50;66.32;;;51.00;;
8281;SDS011;25606;42.686;23.136;2023-06-05T09:49:18;99.53;;;72.78;;
8281;SDS011;25606;42.686;23.136;2023-06-05T09:51:45;111.05;;;82.05;;
8281;SDS011;25606;42.686;23.136;2023-06-05T09:54:13;124.47;;;93.82;;
8281;SDS011;25606;42.686;23.136;2023-06-05T09:56:41;132.27;;;99.63;;
8281;SDS011;25606;42.686;23.136;2023-06-05T09:59:16;140.02;;;106.75;;
8281;SDS011;25606;42.686;23.136;2023-06-05T10:01:44;120.68;;;95.05;;
8281;SDS011;25606;42.686;23.136;2023-06-05T10:04:11;118.18;;;93.72;;
8281;SDS011;25606;42.686;23.136;2023-06-05T10:06:40;127.20;;;100.75;;
8281;SDS011;25606;42.686;23.136;2023-06-05T10:09:08;131.52;;;100.43;;
8281;SDS011;25606;42.686;23.136;2023-06-05T10:11:36;134.45;;;103.95;;
8281;SDS011;25606;42.686;23.136;2023-06-05T10:14:07;114.15;;;94.18;;
8281;SDS011;25606;42.686;23.136;2023-06-05T10:16:35;74.90;;;66.07;;
8281;SDS011;25606;42.686;23.136;2023-06-05T10:19:03;62.47;;;55.08;;
8281;SDS011;25606;42.686;23.136;2023-06-05T10:21:30;37.90;;;31.35;;
8281;SDS011;25606;42.686;23.136;2023-06-05T10:24:00;45.70;;;36.33;;
8281;SDS011;25606;42.686;23.136;2023-06-05T10:26:36;36.63;;;26.52;;
8281;SDS011;25606;42.686;23.136;2023-06-05T10:29:10;37.22;;;28.00;;
8281;SDS011;25606;42.686;23.136;2023-06-05T10:31:43;37.70;;;29.55;;
8281;SDS011;25606;42.686;23.136;2023-06-05T10:34:21;27.42;;;19.85;;
8281;SDS011;25606;42.686;23.136;2023-06-05T10:37:09;20.60;;;14.00;;
8281;SDS011;25606;42.686;23.136;2023-06-05T10:39:39;20.15;;;11.63;;
8281;SDS011;25606;42.686;23.136;2023-06-05T10:42:06;20.52;;;13.13;;
8281;SDS011;25606;42.686;23.136;2023-06-05T10:44:42;20.67;;;15.45;;
8281;SDS011;25606;42.686;23.136;2023-06-05T10:52:41;24.13;;;21.52;;
8281;SDS011;25606;42.686;23.136;2023-06-05T10:55:09;28.30;;;19.58;;
8281;SDS011;25606;42.686;23.136;2023-06-05T11:00:24;40.25;;;28.15;;
8281;SDS011;25606;42.686;23.136;2023-06-05T11:02:53;50.30;;;38.10;;
8281;SDS011;25606;42.686;23.136;2023-06-05T11:05:20;47.55;;;41.80;;
8281;SDS011;25606;42.686;23.136;2023-06-05T11:07:51;40.17;;;33.67;;
8281;SDS011;25606;42.686;23.136;2023-06-05T11:10:35;43.25;;;29.15;;
8281;SDS011;25606;42.686;23.136;2023-06-05T11:13:02;34.47;;;30.33;;
8281;SDS011;25606;42.686;23.136;2023-06-05T11:15:36;34.47;;;25.50;;
8281;SDS011;25606;42.686;23.136;2023-06-05T11:20:49;39.25;;;33.50;;
8281;SDS011;25606;42.686;23.136;2023-06-05T11:23:16;60.47;;;48.85;;
8281;SDS011;25606;42.686;23.136;2023-06-05T11:25:44;34.80;;;27.77;;
8281;SDS011;25606;42.686;23.136;2023-06-05T11:28:11;36.20;;;32.15;;
8281;SDS011;25606;42.686;23.136;2023-06-05T11:30:40;44.83;;;32.53;;
8281;SDS011;25606;42.686;23.136;2023-06-05T11:33:09;43.67;;;31.95;;
8281;SDS011;25606;42.686;23.136;2023-06-05T11:35:37;52.83;;;36.83;;
8281;SDS011;25606;42.686;23.136;2023-06-05T11:38:08;61.00;;;48.33;;
8281;SDS011;25606;42.686;23.136;2023-06-05T11:40:36;49.53;;;39.28;;
8281;SDS011;25606;42.686;23.136;2023-06-05T11:43:04;71.68;;;54.25;;
8281;SDS011;25606;42.686;23.136;2023-06-05T11:45:32;86.93;;;61.08;;
8281;SDS011;25606;42.686;23.136;2023-06-05T11:48:05;75.55;;;56.33;;
8281;SDS011;25606;42.686;23.136;2023-06-05T11:50:32;48.15;;;41.80;;
8281;SDS011;25606;42.686;23.136;2023-06-05T11:53:03;83.53;;;66.20;;
8281;SDS011;25606;42.686;23.136;2023-06-05T11:55:31;97.35;;;71.32;;
8281;SDS011;25606;42.686;23.136;2023-06-05T11:58:09;94.95;;;73.55;;
8281;SDS011;25606;42.686;23.136;2023-06-05T12:00:36;119.50;;;85.22;;
8281;SDS011;25606;42.686;23.136;2023-06-05T12:03:05;111.47;;;87.25;;
8281;SDS011;25606;42.686;23.136;2023-06-05T12:05:33;136.88;;;104.50;;
8281;SDS011;25606;42.686;23.136;2023-06-05T12:10:45;146.93;;;117.35;;
8281;SDS011;25606;42.686;23.136;2023-06-05T12:13:12;148.02;;;121.43;;
8281;SDS011;25606;42.686;23.136;2023-06-05T12:15:40;154.68;;;123.80;;
8281;SDS011;25606;42.686;23.136;2023-06-05T12:18:09;150.95;;;118.28;;
8281;SDS011;25606;42.686;23.136;2023-06-05T12:20:39;152.48;;;123.68;;
8281;SDS011;25606;42.686;23.136;2023-06-05T12:23:07;125.78;;;104.72;;
8281;SDS011;25606;42.686;23.136;2023-06-05T12:25:34;138.40;;;117.57;;
8281;SDS011;25606;42.686;23.136;2023-06-05T12:28:02;140.13;;;110.60;;
8281;SDS011;25606;42.686;23.136;2023-06-05T12:30:45;122.47;;;98.95;;
8281;SDS011;25606;42.686;23.136;2023-06-05T12:33:13;131.50;;;105.35;;
8281;SDS011;25606;42.686;23.136;2023-06-05T12:35:41;132.45;;;109.25;;
8281;SDS011;25606;42.686;23.136;2023-06-05T12:38:08;135.45;;;104.60;;
8281;SDS011;25606;42.686;23.136;2023-06-05T12:40:36;130.43;;;104.47;;
8281;SDS011;25606;42.686;23.136;2023-06-05T12:43:03;124.13;;;103.72;;
8281;SDS011;25606;42.686;23.136;2023-06-05T12:45:30;134.77;;;104.43;;
8281;SDS011;25606;42.686;23.136;2023-06-05T12:47:58;131.23;;;104.03;;
8281;SDS011;25606;42.686;23.136;2023-06-05T12:50:27;138.07;;;106.53;;
8281;SDS011;25606;42.686;23.136;2023-06-05T12:52:54;120.63;;;94.80;;
8281;SDS011;25606;42.686;23.136;2023-06-05T12:55:21;126.53;;;101.22;;
8281;SDS011;25606;42.686;23.136;2023-06-05T12:57:49;115.57;;;92.65;;
8281;SDS011;25606;42.686;23.136;2023-06-05T13:00:16;119.32;;;101.13;;
8281;SDS011;25606;42.686;23.136;2023-06-05T13:02:44;122.32;;;103.38;;
8281;SDS011;25606;42.686;23.136;2023-06-05T13:05:13;123.30;;;97.90;;
8281;SDS011;25606;42.686;23.136;2023-06-05T13:07:42;122.07;;;101.03;;
8281;SDS011;25606;42.686;23.136;2023-06-05T13:10:10;101.68;;;81.57;;
8281;SDS011;25606;42.686;23.136;2023-06-05T13:12:37;108.63;;;86.55;;
8281;SDS011;25606;42.686;23.136;2023-06-05T13:15:05;100.32;;;82.22;;
8281;SDS011;25606;42.686;23.136;2023-06-05T13:17:33;98.78;;;77.90;;
8281;SDS011;25606;42.686;23.136;2023-06-05T13:20:01;95.57;;;72.60;;
8281;SDS011;25606;42.686;23.136;2023-06-05T13:22:32;96.07;;;76.75;;
8281;SDS011;25606;42.686;23.136;2023-06-05T13:25:00;107.93;;;80.60;;
8281;SDS011;25606;42.686;23.136;2023-06-05T13:27:28;126.90;;;95.32;;
8281;SDS011;25606;42.686;23.136;2023-06-05T13:29:55;108.80;;;84.13;;
8281;SDS011;25606;42.686;23.136;2023-06-05T13:32:23;111.43;;;90.07;;
8281;SDS011;25606;42.686;23.136;2023-06-05T13:34:50;132.98;;;105.95;;
8281;SDS011;25606;42.686;23.136;2023-06-05T13:37:18;107.25;;;95.05;;
8281;SDS011;25606;42.686;23.136;2023-06-05T13:39:46;102.20;;;83.60;;
8281;SDS011;25606;42.686;23.136;2023-06-05T13:42:14;102.18;;;85.07;;
8281;SDS011;25606;42.686;23.136;2023-06-05T13:44:43;77.28;;;67.10;;
8281;SDS011;25606;42.686;23.136;2023-06-05T13:47:10;78.22;;;65.28;;
8281;SDS011;25606;42.686;23.136;2023-06-05T13:49:38;55.42;;;43.60;;
8281;SDS011;25606;42.686;23.136;2023-06-05T13:52:05;48.42;;;38.88;;
8281;SDS011;25606;42.686;23.136;2023-06-05T13:54:33;30.95;;;25.50;;
8281;SDS011;25606;42.686;23.136;2023-06-05T13:57:00;34.40;;;25.90;;
8281;SDS011;25606;42.686;23.136;2023-06-05T13:59:29;27.52;;;22.13;;
8281;SDS011;25606;42.686;23.136;2023-06-05T14:01:56;30.60;;;24.17;;
8281;SDS011;25606;42.686;23.136;2023-06-05T14:04:24;25.55;;;19.35;;
8281;SDS011;25606;42.686;23.136;2023-06-05T14:06:51;25.65;;;18.88;;
8281;SDS011;25606;42.686;23.136;2023-06-05T14:09:19;26.42;;;18.85;;
8281;SDS011;25606;42.686;23.136;2023-06-05T14:11:47;22.10;;;17.33;;
8281;SDS011;25606;42.686;23.136;2023-06-05T14:14:14;23.88;;;16.75;;
8281;SDS011;25606;42.686;23.136;2023-06-05T14:16:43;27.42;;;17.90;;
8281;SDS011;25606;42.686;23.136;2023-06-05T14:19:10;23.33;;;14.55;;
8281;SDS011;25606;42.686;23.136;2023-06-05T14:21:38;24.20;;;12.77;;
8281;SDS011;25606;42.686;23.136;2023-06-05T14:24:06;15.50;;;8.13;;
8281;SDS011;25606;42.686;23.136;2023-06-05T14:26:35;15.77;;;8.95;;
8281;SDS011;25606;42.686;23.136;2023-06-05T14:29:02;16.83;;;8.40;;
8281;SDS011;25606;42.686;23.136;2023-06-05T14:31:32;18.13;;;8.77;;
8281;SDS011;25606;42.686;23.136;2023-06-05T14:34:01;15.82;;;8.90;;
8281;SDS011;25606;42.686;23.136;2023-06-05T14:36:28;13.82;;;8.02;;
8281;SDS011;25606;42.686;23.136;2023-06-05T14:38:55;21.08;;;9.85;;